Time;durP1;ratioP1;P1;durP2;ratioP2;P2;SDS_P1;SDS_P2;PMS_P1;PMS_P2;Temp;Humidity;BMP_temperature;BMP_pressure;BME280_temperature;BME280_humidity;BME280_pressure;Samples;Min_cycle;Max_cycle;Signal;HPM_P1;HPM_P2
2022/04/05 00:00:44;;;;;;;77.97;8.27;;;;;;;9.18;100.00;97167.03;5002805;28;20038;-56
2022/04/05 00:03:09;;;;;;;66.50;7.85;;;;;;;9.42;100.00;97171.03;5003848;28;20026;-54
2022/04/05 00:05:34;;;;;;;85.15;10.65;;;;;;;8.89;100.00;97161.47;5000912;28;20064;-54
2022/04/05 00:08:00;;;;;;;78.85;9.48;;;;;;;9.03;100.00;97158.22;5002810;28;20677;-55
2022/04/05 00:10:26;;;;;;;72.35;7.95;;;;;;;9.97;100.00;97167.41;5001475;28;20738;-54
2022/04/05 00:12:51;;;;;;;82.15;7.65;;;;;;;10.68;100.00;97153.25;5003691;28;20469;-54
2022/04/05 00:15:17;;;;;;;71.18;6.68;;;;;;;10.38;100.00;97153.13;5002181;28;20044;-54
2022/04/05 00:17:42;;;;;;;81.65;7.63;;;;;;;10.61;100.00;97165.78;5006167;28;20025;-56
2022/04/05 00:20:08;;;;;;;77.88;8.38;;;;;;;8.73;100.00;97153.56;5000619;28;20435;-55
2022/04/05 00:22:34;;;;;;;70.18;9.60;;;;;;;10.38;100.00;97145.31;5002302;28;20018;-55
2022/04/05 00:25:00;;;;;;;88.93;9.25;;;;;;;9.57;100.00;97137.34;5005592;28;20025;-55
2022/04/05 00:27:25;;;;;;;70.07;7.53;;;;;;;9.88;100.00;97133.19;5001260;28;20049;-54
2022/04/05 00:29:51;;;;;;;76.03;8.35;;;;;;;10.08;100.00;97138.19;5004061;28;20022;-55
2022/04/05 00:32:16;;;;;;;75.82;8.65;;;;;;;9.52;100.00;97128.91;5002210;28;20291;-55
2022/04/05 00:34:41;;;;;;;75.75;8.32;;;;;;;9.25;100.00;97122.44;5024350;28;20083;-56
2022/04/05 00:37:07;;;;;;;91.32;10.98;;;;;;;8.21;100.00;97123.00;5004494;28;20149;-55
2022/04/05 00:39:32;;;;;;;74.65;10.55;;;;;;;7.53;100.00;97120.81;5004595;28;20511;-58
2022/04/05 00:41:58;;;;;;;73.65;8.77;;;;;;;8.33;100.00;97125.97;5005684;28;20042;-55
2022/04/05 00:44:24;;;;;;;74.45;10.10;;;;;;;8.40;100.00;97115.22;5004657;28;20017;-55
2022/04/05 00:46:52;;;;;;;72.82;8.10;;;;;;;8.14;100.00;97116.38;5006387;28;20038;-55
2022/04/05 00:49:29;;;;;;;85.22;8.77;;;;;;;9.41;100.00;97114.72;5005246;28;20425;-55
2022/04/05 00:51:55;;;;;;;70.70;9.55;;;;;;;8.61;100.00;97115.16;5006793;28;20730;-54
2022/04/05 00:54:23;;;;;;;85.20;10.05;;;;;;;9.47;100.00;97110.13;5006678;28;20018;-55
2022/04/05 00:56:49;;;;;;;75.88;9.57;;;;;;;8.91;100.00;97110.22;5006961;28;20786;-54
2022/04/05 00:59:18;;;;;;;83.95;10.02;;;;;;;7.90;100.00;97108.81;5007071;28;20057;-55
2022/04/05 01:01:45;;;;;;;80.90;10.45;;;;;;;7.12;100.00;97105.22;5002234;28;20034;-55
2022/04/05 01:04:12;;;;;;;81.68;10.48;;;;;;;8.08;100.00;97101.94;5003708;28;20700;-55
2022/04/05 01:06:43;;;;;;;84.47;9.60;;;;;;;8.94;100.00;97099.69;5008775;28;20120;-55
2022/04/05 01:09:09;;;;;;;80.97;9.70;;;;;;;8.56;100.00;97091.13;5006210;28;20033;-56
2022/04/05 01:11:35;;;;;;;82.38;10.02;;;;;;;8.32;100.00;97085.28;5008810;28;20321;-55
2022/04/05 01:14:01;;;;;;;74.22;8.80;;;;;;;8.78;100.00;97083.13;5008023;28;20026;-54
2022/04/05 01:16:26;;;;;;;78.82;9.23;;;;;;;8.71;100.00;97090.38;5006831;28;20128;-55
2022/04/05 01:18:52;;;;;;;82.25;9.75;;;;;;;8.02;100.00;97089.22;5007207;28;20029;-55
2022/04/05 01:21:18;;;;;;;75.78;10.18;;;;;;;8.09;100.00;97090.63;5007490;28;20045;-55
2022/04/05 01:24:08;;;;;;;87.30;10.23;;;;;;;7.81;100.00;97082.38;5009262;28;20014;-54
2022/04/05 01:26:46;;;;;;;90.10;9.90;;;;;;;9.29;100.00;97080.66;5004005;28;20101;-55
2022/04/05 01:29:13;;;;;;;85.35;9.82;;;;;;;8.62;100.00;97078.69;5009201;28;20030;-56
2022/04/05 01:31:43;;;;;;;89.80;9.38;;;;;;;9.01;100.00;97076.81;5004243;28;20140;-54
2022/04/05 01:34:08;;;;;;;77.80;9.98;;;;;;;8.59;100.00;97080.59;5006710;28;20030;-54
2022/04/05 01:36:40;;;;;;;75.15;10.20;;;;;;;7.72;100.00;97081.06;5006567;28;20460;-55
2022/04/05 01:39:06;;;;;;;73.90;8.95;;;;;;;8.40;100.00;97072.78;5004142;28;20026;-54
2022/04/05 01:41:31;;;;;;;84.70;9.93;;;;;;;8.90;100.00;97079.94;5002508;28;20080;-55
2022/04/05 01:43:57;;;;;;;80.45;8.15;;;;;;;8.67;100.00;97079.31;5002974;28;20156;-55
2022/04/05 01:46:22;;;;;;;78.88;9.70;;;;;;;8.49;100.00;97069.78;5001886;28;20128;-54
2022/04/05 01:48:48;;;;;;;60.08;5.97;;;;;;;10.30;100.00;97061.47;5002684;28;20032;-56
2022/04/05 01:51:13;;;;;;;87.43;8.80;;;;;;;8.90;100.00;97066.13;5005517;28;20045;-55
2022/04/05 01:53:38;;;;;;;72.97;9.32;;;;;;;8.43;100.00;97059.69;5004001;28;20041;-56
2022/04/05 01:56:04;;;;;;;93.05;10.88;;;;;;;8.14;100.00;97063.59;5002851;28;20778;-55
2022/04/05 01:58:29;;;;;;;74.30;7.40;;;;;;;7.95;100.00;97064.44;5006354;28;20111;-55
2022/04/05 02:00:54;;;;;;;89.05;9.32;;;;;;;8.37;100.00;97063.38;5004823;28;20218;-54
2022/04/05 02:03:20;;;;;;;76.32;10.05;;;;;;;7.78;100.00;97054.84;5005271;28;20026;-55
2022/04/05 02:05:46;;;;;;;72.63;9.90;;;;;;;7.59;100.00;97052.22;5002397;28;20042;-56
2022/04/05 02:08:13;;;;;;;88.65;10.02;;;;;;;8.71;100.00;97053.16;5005848;28;20057;-56
2022/04/05 02:10:38;;;;;;;84.05;9.13;;;;;;;8.61;100.00;97048.41;5004175;28;20034;-56
2022/04/05 02:13:03;;;;;;;89.93;8.45;;;;;;;8.98;100.00;97044.00;5003766;28;20071;-53
2022/04/05 02:15:28;;;;;;;68.03;8.35;;;;;;;8.68;100.00;97039.38;5004589;28;20060;-55
2022/04/05 02:17:54;;;;;;;64.15;7.75;;;;;;;8.56;100.00;97045.19;5002538;28;20691;-54
2022/04/05 02:20:19;;;;;;;82.32;9.75;;;;;;;8.00;100.00;97033.09;5005311;28;20121;-54
2022/04/05 02:22:45;;;;;;;84.80;8.38;;;;;;;9.47;100.00;97034.63;5006917;28;20378;-55
2022/04/05 02:25:10;;;;;;;78.10;7.47;;;;;;;9.34;100.00;97040.47;5003842;28;20029;-56
2022/04/05 02:27:40;;;;;;;79.68;8.88;;;;;;;9.37;100.00;97029.88;5002528;28;20033;-55
2022/04/05 02:30:06;;;;;;;86.15;9.82;;;;;;;8.80;100.00;97026.69;5006664;28;20114;-54
2022/04/05 02:32:31;;;;;;;77.63;9.60;;;;;;;8.60;100.00;97038.94;5005377;28;21200;-54
2022/04/05 02:34:56;;;;;;;83.72;10.00;;;;;;;8.34;100.00;97031.50;5004892;28;20050;-56
2022/04/05 02:37:22;;;;;;;82.35;9.27;;;;;;;7.90;100.00;97036.13;5003107;28;20132;-54
2022/04/05 02:39:47;;;;;;;72.22;9.30;;;;;;;8.26;100.00;97037.91;5004066;28;20034;-55
2022/04/05 02:42:12;;;;;;;67.68;9.85;;;;;;;8.18;100.00;97024.44;5002688;28;20037;-55
2022/04/05 02:44:38;;;;;;;80.85;9.27;;;;;;;8.52;100.00;97024.63;5003022;28;20029;-54
2022/04/05 02:47:04;;;;;;;76.45;8.32;;;;;;;8.99;100.00;97032.69;5002060;28;20922;-55
2022/04/05 02:49:29;;;;;;;78.40;9.18;;;;;;;8.51;100.00;97026.38;5004345;28;20712;-56
2022/04/05 02:51:55;;;;;;;64.53;8.70;;;;;;;8.37;100.00;97019.22;5003746;28;20161;-55
2022/04/05 02:54:20;;;;;;;89.53;9.52;;;;;;;8.20;100.00;97027.81;5001318;28;20543;-54
2022/04/05 02:56:46;;;;;;;81.60;8.70;;;;;;;7.51;100.00;97028.34;4998102;28;20161;-56
2022/04/05 02:59:11;;;;;;;64.07;8.63;;;;;;;8.25;100.00;97023.25;5005230;28;20029;-56
2022/04/05 03:01:37;;;;;;;88.80;8.88;;;;;;;9.07;100.00;97024.50;5001505;28;20028;-54
2022/04/05 03:04:02;;;;;;;81.10;9.60;;;;;;;7.82;100.00;97025.22;5005653;28;20088;-56
2022/04/05 03:06:28;;;;;;;73.15;8.25;;;;;;;9.07;100.00;97025.31;5001939;28;20440;-54
2022/04/05 03:08:56;;;;;;;82.68;9.43;;;;;;;9.84;100.00;97020.50;5002577;28;20208;-55
2022/04/05 03:11:22;;;;;;;88.10;9.30;;;;;;;8.47;100.00;97017.91;5003388;28;20671;-55
2022/04/05 03:13:47;;;;;;;87.43;9.60;;;;;;;8.26;100.00;97027.50;5006927;28;20079;-54
2022/04/05 03:16:12;;;;;;;69.00;6.20;;;;;;;9.87;100.00;97020.34;5003704;28;20066;-56
2022/04/05 03:18:39;;;;;;;79.13;9.15;;;;;;;8.47;100.00;97014.44;5003619;28;20747;-57
2022/04/05 03:21:04;;;;;;;71.05;8.60;;;;;;;8.43;100.00;97021.53;5003063;28;20042;-54
2022/04/05 03:23:29;;;;;;;80.40;9.88;;;;;;;7.67;100.00;97015.53;5002988;28;20083;-54
2022/04/05 03:25:55;;;;;;;85.35;6.43;;;;;;;12.49;100.00;97015.44;4997115;28;20601;-55
2022/04/05 03:28:20;;;;;;;77.22;9.07;;;;;;;8.32;100.00;97020.34;5002513;28;20064;-56
2022/04/05 03:30:47;;;;;;;68.07;7.60;;;;;;;7.70;100.00;97020.56;5007383;28;20034;-54
2022/04/05 03:33:13;;;;;;;78.18;8.27;;;;;;;9.17;100.00;97019.66;5003604;28;20506;-56
2022/04/05 03:35:39;;;;;;;66.10;8.25;;;;;;;8.25;100.00;97014.59;5003664;28;20124;-54
2022/04/05 03:38:04;;;;;;;84.80;8.73;;;;;;;9.10;100.00;97013.06;4999259;28;20140;-53
2022/04/05 03:40:31;;;;;;;90.22;10.18;;;;;;;8.34;100.00;97015.91;5003699;28;20048;-55
2022/04/05 03:42:57;;;;;;;78.15;9.50;;;;;;;8.04;100.00;97009.50;5004072;28;20318;-55
2022/04/05 03:45:22;;;;;;;69.60;6.97;;;;;;;9.61;100.00;97025.19;5006723;28;20052;-55
2022/04/05 03:47:48;;;;;;;70.03;8.50;;;;;;;8.52;100.00;97012.47;4998518;28;20030;-55
2022/04/05 03:50:14;;;;;;;103.65;10.35;;;;;;;8.52;100.00;97017.66;5001988;28;20119;-54
2022/04/05 03:52:40;;;;;;;84.20;9.10;;;;;;;8.15;100.00;97014.19;5003515;28;20037;-55
2022/04/05 03:55:06;;;;;;;77.78;8.77;;;;;;;7.65;100.00;97013.00;4999749;28;20025;-56
2022/04/05 03:57:31;;;;;;;76.30;6.50;;;;;;;8.89;100.00;97015.84;5000079;28;20489;-54
2022/04/05 03:59:57;;;;;;;74.05;7.53;;;;;;;8.79;100.00;97020.66;5004098;28;20041;-55
2022/04/05 04:02:22;;;;;;;84.03;9.38;;;;;;;8.19;100.00;97015.72;5002019;28;20124;-54
2022/04/05 04:04:47;;;;;;;96.30;9.35;;;;;;;8.71;100.00;97012.38;5000788;28;20021;-55
2022/04/05 04:07:13;;;;;;;75.35;7.72;;;;;;;9.56;100.00;97006.34;5002727;28;20025;-56
2022/04/05 04:09:38;;;;;;;71.22;6.88;;;;;;;8.43;100.00;97025.91;4999381;28;20061;-54
2022/04/05 04:12:05;;;;;;;80.15;8.63;;;;;;;9.73;100.00;97007.22;5001284;28;20053;-56
2022/04/05 04:14:33;;;;;;;80.85;9.93;;;;;;;7.71;100.00;97014.47;5001930;28;20028;-54
2022/04/05 04:16:58;;;;;;;72.70;8.52;;;;;;;7.82;100.00;97022.63;4997988;28;20487;-54
2022/04/05 04:19:24;;;;;;;84.47;7.35;;;;;;;9.79;100.00;97032.91;5002099;28;20140;-55
2022/04/05 04:21:49;;;;;;;78.90;7.32;;;;;;;8.87;100.00;97033.28;4999980;28;20043;-54
2022/04/05 04:24:14;;;;;;;78.20;8.70;;;;;;;8.53;100.00;97027.16;5000676;28;20038;-55
2022/04/05 04:26:40;;;;;;;79.63;10.18;;;;;;;8.00;100.00;97020.94;5001567;28;20154;-56
2022/04/05 04:29:05;;;;;;;66.88;7.85;;;;;;;10.18;100.00;97019.53;5002414;28;20915;-55
2022/04/05 04:31:33;;;;;;;89.53;7.97;;;;;;;10.13;100.00;97021.53;5003093;28;20061;-54
2022/04/05 04:34:00;;;;;;;58.22;6.55;;;;;;;10.10;100.00;97016.47;5001360;28;20038;-54
2022/04/05 04:36:27;;;;;;;65.32;7.93;;;;;;;7.98;100.00;97027.97;5003268;28;20037;-55
2022/04/05 04:38:54;;;;;;;78.50;7.47;;;;;;;9.49;100.00;97030.19;5003532;28;20057;-55
2022/04/05 04:41:23;;;;;;;78.88;8.68;;;;;;;9.62;100.00;97028.63;4999183;28;20038;-56
2022/04/05 04:43:52;;;;;;;83.45;9.30;;;;;;;8.77;100.00;97025.09;5005401;28;20026;-55
2022/04/05 04:46:17;;;;;;;76.35;7.90;;;;;;;8.38;100.00;97028.69;5001735;28;20060;-56
2022/04/05 04:48:43;;;;;;;77.80;8.45;;;;;;;9.76;100.00;97023.53;5001473;28;20061;-55
2022/04/05 04:51:09;;;;;;;68.10;8.02;;;;;;;8.43;100.00;97023.31;5002574;28;20038;-55
2022/04/05 04:53:34;;;;;;;78.57;9.30;;;;;;;8.33;100.00;97022.88;5004934;28;20041;-56
2022/04/05 04:56:00;;;;;;;73.70;8.65;;;;;;;8.29;100.00;97019.59;5000309;28;20100;-55
2022/04/05 04:58:25;;;;;;;78.25;7.25;;;;;;;9.87;100.00;97029.91;5006719;28;20447;-55
2022/04/05 05:00:51;;;;;;;85.45;7.72;;;;;;;9.04;100.00;97025.50;5005954;28;20120;-55
2022/04/05 05:03:19;;;;;;;71.45;8.18;;;;;;;9.32;100.00;97018.88;5004283;28;20802;-56
2022/04/05 05:05:45;;;;;;;75.25;7.40;;;;;;;9.13;100.00;97018.13;5000705;28;20455;-56
2022/04/05 05:08:10;;;;;;;83.53;8.90;;;;;;;8.66;100.00;97023.03;4999621;28;20557;-55
2022/04/05 05:10:36;;;;;;;80.18;9.85;;;;;;;8.84;100.00;97028.22;4997596;28;20063;-56
2022/04/05 05:13:01;;;;;;;96.22;11.15;;;;;;;7.22;100.00;97027.03;4996449;28;20144;-55
2022/04/05 05:15:27;;;;;;;66.32;7.45;;;;;;;7.95;100.00;97028.09;5001096;28;20046;-56
2022/04/05 05:17:55;;;;;;;86.82;9.77;;;;;;;8.47;100.00;97033.50;5002451;28;20057;-57
2022/04/05 05:20:22;;;;;;;103.80;9.77;;;;;;;8.42;100.00;97029.44;5002557;28;20028;-55
2022/04/05 05:22:48;;;;;;;85.95;10.98;;;;;;;7.29;100.00;97023.25;5006826;28;20010;-56
2022/04/05 05:25:14;;;;;;;86.53;9.45;;;;;;;8.02;100.00;97028.66;5000064;28;20034;-56
2022/04/05 05:27:39;;;;;;;82.00;9.20;;;;;;;7.65;100.00;97040.72;5007051;28;20745;-56
2022/04/05 05:30:09;;;;;;;89.05;9.63;;;;;;;8.61;100.00;97040.59;5005533;28;20040;-56
2022/04/05 05:32:42;;;;;;;76.57;7.40;;;;;;;9.82;100.00;97044.03;5003925;28;20046;-57
2022/04/05 05:35:08;;;;;;;85.85;7.65;;;;;;;12.47;100.00;97036.44;5006392;28;20795;-55
2022/04/05 05:37:33;;;;;;;76.05;6.72;;;;;;;14.83;100.00;97031.69;5005228;28;20519;-55
2022/04/05 05:39:58;;;;;;;84.90;7.85;;;;;;;16.94;100.00;97043.47;5006084;28;20034;-56
2022/04/05 05:42:24;;;;;;;86.35;7.60;;;;;;;17.16;100.00;97053.06;5000223;28;20053;-55
2022/04/05 05:44:50;;;;;;;80.28;7.78;;;;;;;15.90;100.00;97053.47;5005043;28;20033;-54
2022/04/05 05:47:15;;;;;;;63.55;7.15;;;;;;;14.81;98.81;97041.47;5005272;28;20659;-54
2022/04/05 05:49:40;;;;;;;72.68;8.00;;;;;;;11.93;100.00;97058.13;5001851;28;20029;-55
2022/04/05 05:52:09;;;;;;;71.35;7.28;;;;;;;14.00;100.00;97049.88;5004310;28;20113;-54
2022/04/05 05:54:34;;;;;;;82.65;8.10;;;;;;;10.53;100.00;97055.84;5008026;28;20030;-55
2022/04/05 05:56:59;;;;;;;70.50;8.93;;;;;;;9.61;100.00;97058.16;5004905;28;20049;-54
2022/04/05 05:59:26;;;;;;;70.53;9.35;;;;;;;7.84;100.00;97069.28;5003784;28;20032;-55
2022/04/05 06:01:51;;;;;;;70.82;8.30;;;;;;;8.22;100.00;97070.13;5001226;28;20045;-55
2022/04/05 06:04:17;;;;;;;81.57;9.48;;;;;;;8.52;100.00;97069.63;5018877;28;20018;-53
2022/04/05 06:06:43;;;;;;;85.57;8.88;;;;;;;8.53;100.00;97065.28;5005644;28;20552;-54
2022/04/05 06:09:08;;;;;;;83.90;7.55;;;;;;;9.76;100.00;97054.78;5002723;28;20032;-54
2022/04/05 06:11:33;;;;;;;88.13;9.05;;;;;;;9.60;100.00;97043.47;5007578;28;20068;-54
2022/04/05 06:13:59;;;;;;;76.97;8.30;;;;;;;10.23;100.00;97059.16;5004701;28;20120;-54
2022/04/05 06:16:24;;;;;;;85.80;9.82;;;;;;;7.83;100.00;97065.84;5007118;28;20658;-54
2022/04/05 06:18:49;;;;;;;94.63;9.20;;;;;;;8.32;100.00;97078.34;5007383;28;20023;-54
2022/04/05 06:21:15;;;;;;;95.35;9.00;;;;;;;8.91;100.00;97086.81;5001802;28;20038;-55
2022/04/05 06:23:41;;;;;;;77.70;9.48;;;;;;;7.52;100.00;97082.78;5002119;28;20079;-56
2022/04/05 06:26:07;;;;;;;76.93;8.18;;;;;;;9.79;100.00;97090.22;4998046;28;20053;-55
2022/04/05 06:28:32;;;;;;;63.13;6.78;;;;;;;9.83;100.00;97096.94;5005519;28;20338;-54
2022/04/05 06:30:58;;;;;;;82.70;9.38;;;;;;;8.21;100.00;97102.22;4999737;28;20100;-55
2022/04/05 06:33:23;;;;;;;84.30;8.65;;;;;;;8.40;100.00;97089.22;5003823;28;20475;-55
2022/04/05 06:35:54;;;;;;;79.47;8.15;;;;;;;8.54;100.00;97087.75;5002633;28;20057;-53
2022/04/05 06:38:20;;;;;;;79.25;8.02;;;;;;;9.76;100.00;97104.25;5001638;28;20967;-54
2022/04/05 06:40:46;;;;;;;80.28;8.25;;;;;;;7.86;100.00;97094.25;5004641;28;20042;-54
2022/04/05 06:43:13;;;;;;;83.35;7.95;;;;;;;9.68;100.00;97080.34;5002079;28;20932;-56
2022/04/05 06:45:38;;;;;;;82.03;8.82;;;;;;;9.18;100.00;97086.38;5000110;28;20044;-55
2022/04/05 06:48:06;;;;;;;90.03;8.82;;;;;;;8.36;100.00;97099.81;5002925;28;20030;-56
2022/04/05 06:50:32;;;;;;;77.80;7.28;;;;;;;8.03;100.00;97103.03;5005897;28;20052;-55
2022/04/05 06:52:59;;;;;;;84.05;9.05;;;;;;;8.78;100.00;97096.16;5004946;28;20528;-55
2022/04/05 06:55:25;;;;;;;73.80;7.70;;;;;;;10.50;100.00;97095.13;5002869;28;20034;-54
2022/04/05 06:57:50;;;;;;;67.05;8.23;;;;;;;8.34;100.00;97101.66;5003094;28;20026;-55
2022/04/05 07:00:22;;;;;;;93.80;9.75;;;;;;;8.71;100.00;97103.38;5007206;28;20028;-54
2022/04/05 07:02:47;;;;;;;78.03;8.17;;;;;;;8.87;100.00;97111.28;5004588;28;20073;-55
2022/04/05 07:05:13;;;;;;;89.07;8.77;;;;;;;8.32;100.00;97112.13;5003840;28;20017;-55
2022/04/05 07:07:39;;;;;;;86.28;9.82;;;;;;;8.02;100.00;97106.56;5003172;28;20160;-55
2022/04/05 07:10:06;;;;;;;82.07;9.32;;;;;;;8.26;100.00;97100.25;5001611;28;20037;-54
2022/04/05 07:12:32;;;;;;;84.88;8.45;;;;;;;8.80;100.00;97102.09;5003427;28;20037;-53
2022/04/05 07:14:57;;;;;;;72.45;7.80;;;;;;;8.75;100.00;97107.53;5001162;28;20026;-56
2022/04/05 07:17:23;;;;;;;81.05;8.98;;;;;;;8.81;100.00;97111.59;5000898;28;20041;-54
2022/04/05 07:19:48;;;;;;;80.32;9.05;;;;;;;7.44;100.00;97103.00;5001485;28;20087;-54
2022/04/05 07:22:14;;;;;;;82.82;9.50;;;;;;;8.18;100.00;97101.50;5001216;28;20171;-54
2022/04/05 07:24:39;;;;;;;77.28;8.63;;;;;;;7.88;100.00;97114.97;5003825;28;20030;-53
2022/04/05 07:27:05;;;;;;;75.70;8.27;;;;;;;8.60;100.00;97108.25;5002585;28;20454;-54
2022/04/05 07:29:30;;;;;;;86.50;8.88;;;;;;;9.22;100.00;97112.16;5004061;28;20060;-54
2022/04/05 07:31:55;;;;;;;77.20;6.70;;;;;;;9.59;100.00;97118.16;5005243;28;20087;-54
2022/04/05 07:34:21;;;;;;;75.50;8.40;;;;;;;7.60;100.00;97121.38;5003970;28;20028;-54
2022/04/05 07:36:46;;;;;;;80.05;9.30;;;;;;;8.12;100.00;97118.22;4998697;28;20033;-54
2022/04/05 07:39:11;;;;;;;91.45;8.70;;;;;;;8.89;100.00;97119.88;5002743;28;20029;-55
2022/04/05 07:41:38;;;;;;;84.80;8.65;;;;;;;8.81;100.00;97119.41;5000674;28;20045;-54
2022/04/05 07:44:04;;;;;;;81.22;9.25;;;;;;;7.61;100.00;97117.00;5003937;28;20026;-57
2022/04/05 07:46:29;;;;;;;83.05;8.70;;;;;;;9.31;100.00;97121.28;5004911;28;20046;-55
2022/04/05 07:48:54;;;;;;;86.38;8.38;;;;;;;9.77;100.00;97107.69;5001730;28;20043;-54
2022/04/05 07:51:20;;;;;;;81.15;9.30;;;;;;;7.64;100.00;97125.50;5003347;28;20042;-54
2022/04/05 07:53:45;;;;;;;105.85;10.55;;;;;;;7.93;100.00;97122.56;5000844;28;20030;-54
2022/04/05 07:56:13;;;;;;;56.00;7.10;;;;;;;7.36;100.00;97127.59;5001858;28;20045;-55
2022/04/05 07:58:40;;;;;;;74.70;8.75;;;;;;;7.82;100.00;97126.47;5006069;28;20026;-54
2022/04/05 08:01:05;;;;;;;91.68;10.15;;;;;;;7.55;100.00;97125.91;5002683;28;20164;-55
2022/04/05 08:03:30;;;;;;;78.50;8.90;;;;;;;8.37;100.00;97124.91;5006798;28;20289;-56
2022/04/05 08:05:56;;;;;;;84.85;8.07;;;;;;;8.11;100.00;97129.53;5002535;28;20500;-55
2022/04/05 08:08:21;;;;;;;73.53;7.80;;;;;;;8.21;100.00;97122.16;5003679;28;20033;-55
2022/04/05 08:10:47;;;;;;;74.30;8.43;;;;;;;7.98;100.00;97128.41;5004040;28;20070;-55
2022/04/05 08:13:13;;;;;;;81.70;8.75;;;;;;;8.04;100.00;97136.75;5000135;28;20424;-56
2022/04/05 08:15:41;;;;;;;82.28;8.98;;;;;;;7.66;100.00;97128.03;4995916;28;20109;-54
2022/04/05 08:18:09;;;;;;;89.82;9.48;;;;;;;7.25;100.00;97130.66;5002539;28;20026;-55
2022/04/05 08:20:36;;;;;;;86.38;9.43;;;;;;;7.21;100.00;97139.47;5004051;28;20049;-54
2022/04/05 08:23:01;;;;;;;75.82;8.75;;;;;;;7.79;100.00;97142.16;5003285;28;20022;-55
2022/04/05 08:25:28;;;;;;;87.13;8.95;;;;;;;7.59;100.00;97139.59;4999463;28;20350;-56
2022/04/05 08:27:53;;;;;;;81.00;8.93;;;;;;;8.03;100.00;97145.47;5002973;28;20487;-55
2022/04/05 08:30:19;;;;;;;91.15;8.88;;;;;;;8.25;100.00;97145.34;5002788;28;20078;-55
2022/04/05 08:32:46;;;;;;;78.88;8.07;;;;;;;7.66;100.00;97156.59;4999554;28;20030;-55
2022/04/05 08:35:15;;;;;;;76.47;8.25;;;;;;;7.85;100.00;97152.31;5000407;28;20053;-55
2022/04/05 08:37:41;;;;;;;76.63;7.20;;;;;;;9.62;100.00;97145.78;4999747;28;20667;-55
2022/04/05 08:40:08;;;;;;;77.32;8.20;;;;;;;8.37;100.00;97148.28;5002138;28;20557;-55
2022/04/05 08:42:35;;;;;;;93.93;9.65;;;;;;;7.18;100.00;97155.16;5002228;28;20033;-56
2022/04/05 08:45:04;;;;;;;83.85;8.88;;;;;;;6.89;100.00;97163.19;5004374;28;20049;-56
2022/04/05 08:47:30;;;;;;;81.03;8.85;;;;;;;7.85;100.00;97162.69;5002754;28;20209;-56
2022/04/05 08:49:56;;;;;;;72.28;6.75;;;;;;;9.43;100.00;97167.53;5001732;28;20250;-54
2022/04/05 08:52:22;;;;;;;79.70;7.97;;;;;;;8.63;100.00;97160.09;5004922;28;20414;-55
2022/04/05 08:54:47;;;;;;;93.90;8.90;;;;;;;8.05;100.00;97163.53;5009521;28;20535;-56
2022/04/05 08:57:12;;;;;;;90.20;8.82;;;;;;;8.53;100.00;97158.84;5003865;28;20416;-56
2022/04/05 08:59:38;;;;;;;75.97;7.63;;;;;;;8.58;100.00;97162.06;5007580;28;20026;-55
2022/04/05 09:02:03;;;;;;;58.72;6.68;;;;;;;8.25;100.00;97166.13;5007916;28;20670;-55
2022/04/05 09:04:33;;;;;;;78.35;7.25;;;;;;;8.67;100.00;97167.72;5004514;28;20392;-56
2022/04/05 09:07:18;;;;;;;73.80;7.65;;;;;;;8.83;100.00;97169.56;5003670;28;20488;-57
2022/04/05 09:09:43;;;;;;;82.00;7.07;;;;;;;9.90;100.00;97165.19;5001948;28;20044;-57
2022/04/05 09:12:16;;;;;;;82.05;7.22;;;;;;;9.91;100.00;97164.28;5005246;28;20038;-55
2022/04/05 09:14:42;;;;;;;;;;;;;;;10.08;100.00;97155.59;5004781;28;20462;-55
2022/04/05 09:17:09;;;;;;;71.30;7.07;;;;;;;9.93;100.00;97162.44;5008283;28;20201;-54
2022/04/05 09:19:38;;;;;;;73.07;7.50;;;;;;;8.98;100.00;97166.22;5007821;28;20025;-55
2022/04/05 09:22:04;;;;;;;81.90;7.38;;;;;;;9.39;100.00;97179.00;5003088;28;20050;-55
2022/04/05 09:24:40;;;;;;;74.65;8.05;;;;;;;8.06;100.00;97165.25;5003812;28;20144;-55
2022/04/05 09:27:07;;;;;;;83.43;8.70;;;;;;;7.93;100.00;97169.31;5004498;28;20030;-55
2022/04/05 09:29:44;;;;;;;56.90;6.90;;;;;;;8.26;100.00;97173.00;5008939;28;20162;-55
2022/04/05 09:32:11;;;;;;;83.75;8.13;;;;;;;8.47;100.00;97175.56;5004292;28;20037;-54
2022/04/05 09:34:50;;;;;;;85.70;8.40;;;;;;;10.01;100.00;97168.91;5004902;28;20032;-54
2022/04/05 09:37:16;;;;;;;82.70;7.65;;;;;;;9.39;100.00;97165.13;5003032;28;20041;-55
2022/04/05 09:39:43;;;;;;;77.10;6.15;;;;;;;11.84;100.00;97164.94;5007732;28;20029;-54
2022/04/05 09:42:09;;;;;;;84.05;7.82;;;;;;;8.52;100.00;97171.00;5000770;28;20042;-56
2022/04/05 09:44:37;;;;;;;83.68;8.38;;;;;;;8.47;100.00;97170.34;5001414;28;20044;-54
2022/04/05 09:47:10;;;;;;;84.28;6.55;;;;;;;10.03;100.00;97181.88;5004154;28;20595;-54
2022/04/05 09:49:39;;;;;;;81.80;8.15;;;;;;;8.79;100.00;97170.66;5002263;28;20793;-56
2022/04/05 09:52:31;;;;;;;78.82;7.68;;;;;;;8.58;100.00;97178.50;5004760;28;20041;-55
2022/04/05 09:55:13;;;;;;;81.10;7.60;;;;;;;9.86;100.00;97171.47;5006149;28;20058;-54
2022/04/05 09:57:39;;;;;;;84.32;8.00;;;;;;;8.33;100.00;97183.13;5005987;28;20110;-58
2022/04/05 10:00:15;;;;;;;85.72;7.13;;;;;;;9.96;100.00;97167.47;5004992;28;20029;-56
2022/04/05 10:03:02;;;;;;;85.18;7.20;;;;;;;8.50;100.00;97180.63;4977895;28;20100;-56
2022/04/05 10:05:32;;;;;;;100.40;7.70;;;;;;;10.01;100.00;97178.50;4977420;28;20054;-55
2022/04/05 10:07:57;;;;;;;74.75;7.18;;;;;;;9.19;100.00;97179.13;4978944;28;20034;-55
2022/04/05 10:10:23;;;;;;;78.72;7.40;;;;;;;8.83;100.00;97178.22;4977524;28;20042;-54
2022/04/05 10:12:49;;;;;;;89.82;8.15;;;;;;;8.48;100.00;97179.84;4976775;28;20082;-55
2022/04/05 10:15:15;;;;;;;89.88;8.50;;;;;;;8.05;100.00;97180.00;4976149;28;20034;-54
2022/04/05 10:17:45;;;;;;;85.95;6.50;;;;;;;9.60;100.00;97199.69;4973052;28;20038;-54
2022/04/05 10:20:11;;;;;;;92.20;8.15;;;;;;;8.82;100.00;97186.06;4976869;28;20038;-56
2022/04/05 10:22:38;;;;;;;94.72;8.38;;;;;;;8.25;100.00;97186.91;4979696;28;20022;-55
2022/04/05 10:25:04;;;;;;;71.88;6.95;;;;;;;10.10;100.00;97178.03;4974912;28;20077;-55
2022/04/05 10:27:29;;;;;;;76.55;7.40;;;;;;;9.00;100.00;97185.22;4975394;28;20609;-56
2022/04/05 10:30:21;;;;;;;78.60;7.53;;;;;;;8.67;100.00;97178.09;4976994;28;20080;-56
2022/04/05 10:33:20;;;;;;;80.22;7.60;;;;;;;9.05;100.00;97167.63;5006019;28;20050;-56
2022/04/05 10:35:53;;;;;;;91.75;8.60;;;;;;;8.24;100.00;97177.41;5000009;28;20038;-56
2022/04/05 10:38:19;;;;;;;81.18;7.38;;;;;;;10.04;100.00;97183.56;5004665;28;20643;-55
2022/04/05 10:41:23;;;;;;;95.07;8.32;;;;;;;8.84;100.00;97173.84;5003821;28;20543;-54
2022/04/05 10:44:18;;;;;;;84.95;6.50;;;;;;;9.67;100.00;97169.81;5005771;28;20077;-55
2022/04/05 10:46:53;;;;;;;71.05;7.70;;;;;;;9.33;100.00;97166.28;5004029;28;20033;-54
2022/04/05 10:49:35;;;;;;;90.18;8.77;;;;;;;9.59;100.00;97161.53;5002300;28;20084;-56
2022/04/05 10:52:23;;;;;;;85.47;8.70;;;;;;;8.62;100.00;97169.66;4996705;28;20049;-55
2022/04/05 10:55:04;;;;;;;88.43;6.90;;;;;;;10.93;100.00;97167.53;5003773;28;20030;-57
2022/04/05 10:57:37;;;;;;;98.50;8.20;;;;;;;9.33;100.00;97163.69;5004400;28;20041;-54
2022/04/05 11:00:12;;;;;;;91.90;8.18;;;;;;;9.80;100.00;97176.09;5003722;28;20168;-54
2022/04/05 11:02:46;;;;;;;65.55;6.97;;;;;;;9.47;100.00;97172.59;5004158;28;20049;-55
2022/04/05 11:05:14;;;;;;;102.38;9.38;;;;;;;8.96;100.00;97168.06;5003646;28;20049;-58
2022/04/05 11:07:51;;;;;;;89.60;6.80;;;;;;;11.25;100.00;97168.34;5004082;28;20047;-55
2022/04/05 11:10:19;;;;;;;78.25;8.00;;;;;;;11.04;100.00;97157.31;5004587;28;20726;-55
2022/04/05 11:12:44;;;;;;;72.03;5.63;;;;;;;13.96;100.00;97169.84;4999227;28;20025;-55
2022/04/05 11:15:10;;;;;;;86.57;6.97;;;;;;;13.60;100.00;97154.81;5000670;28;20619;-56
2022/04/05 11:17:37;;;;;;;76.90;7.50;;;;;;;11.72;100.00;97162.09;5004228;28;20021;-55
2022/04/05 11:20:03;;;;;;;66.22;5.82;;;;;;;10.51;100.00;97161.13;5003725;28;20017;-55
2022/04/05 11:22:32;;;;;;;63.40;5.30;;;;;;;11.65;100.00;97160.81;5000982;28;20041;-54
2022/04/05 11:25:08;;;;;;;99.13;7.25;;;;;;;12.66;100.00;97156.47;5001827;28;20597;-56